»·PEaware :: N75NX CYCG-KGEG

N75NX :: CYCG-KGEG

FLIGHT INFORMATION

Flight Status: Arrived
Operator: Privately registered:
United States
More flights under this callsign
Pilot: Leighton M. (11234)
Aircraft: CESSNA 337 TURBO SKYMASTER
(C337)
More flights by this aircraft type
Origin: CYCG Castlegar
Canada
Destination: KGEG Spokane Intl
United States
More flights between these airports :: More routes between these airports
Route:
File this flight plan on PilotEdge
Remarks:
Altitude:
(Current/Filed)
8,000ft
Speed:
(Current/Filed)
150kts
Departed: 25-Mar-17 08:15 AM
Arrived: 25-Mar-17 09:16 AM
Distance/Time
Traveled:
101nm/1:01
Distance/Time
To Go:
Arrived

Flight Plot

Page will automatically refresh every two minutes.

Flight plan parsing failed; only flown route is shown


Map Options




Map Legend


Flown Route
Filed Route
Departure Airport
Arrival Airport
Navaid (VOR, NDB)
Fix

Horizontal Profiles

Position Reports

Time Latitude Longitude Heading Altitude Ground
Speed
25-Mar-17 08:00 49.300627 -117.635837 80 1627ft 0kts
25-Mar-17 08:01 49.300627 -117.635837 80 1627ft 0kts
25-Mar-17 08:02 49.300627 -117.635837 80 1627ft 0kts
25-Mar-17 08:03 49.300627 -117.635837 80 1627ft 0kts
25-Mar-17 08:04 49.300627 -117.635837 80 1627ft 0kts
25-Mar-17 08:05 49.300627 -117.635837 80 1627ft 0kts
25-Mar-17 08:06 49.300628 -117.635827 82 1627ft 0kts
25-Mar-17 08:07 49.300628 -117.635826 82 1627ft 0kts
25-Mar-17 08:08 49.300628 -117.635826 82 1627ft 0kts
25-Mar-17 08:09 49.301818 -117.634212 349 1627ft 13kts
25-Mar-17 08:10 49.302953 -117.634441 172 1627ft 0kts
25-Mar-17 08:11 49.302953 -117.634441 172 1627ft 0kts
25-Mar-17 08:12 49.302953 -117.634441 172 1627ft 0kts
25-Mar-17 08:13 49.302953 -117.634441 172 1627ft 0kts
25-Mar-17 08:14 49.302953 -117.634441 172 1627ft 0kts
25-Mar-17 08:15 49.302953 -117.634441 172 1627ft 0kts
25-Mar-17 08:16 49.286650 -117.630867 182 2151ft 90kts
25-Mar-17 08:17 49.260175 -117.641091 196 3316ft 102kts
25-Mar-17 08:18 49.237362 -117.654260 203 4286ft 107kts
25-Mar-17 08:19 49.216821 -117.668164 200 5062ft 111kts
25-Mar-17 08:20 49.198710 -117.681554 202 5673ft 115kts
25-Mar-17 08:21 49.179482 -117.695941 204 6290ft 121kts
25-Mar-17 08:22 49.161844 -117.708917 204 6867ft 121kts
25-Mar-17 08:23 49.147769 -117.718976 204 7254ft 123kts
25-Mar-17 08:24 49.133689 -117.728933 203 7576ft 127kts
25-Mar-17 08:25 49.113661 -117.734780 180 8007ft 128kts
25-Mar-17 08:26 49.086335 -117.734056 179 7991ft 150kts
25-Mar-17 08:27 49.057733 -117.733006 179 7989ft 155kts
25-Mar-17 08:28 49.028183 -117.731332 180 7988ft 156kts
25-Mar-17 08:29 49.016278 -117.730669 180 7988ft 156kts
25-Mar-17 08:30 48.986850 -117.728926 180 7987ft 156kts
25-Mar-17 08:31 48.963655 -117.727454 180 7987ft 155kts
25-Mar-17 08:32 48.941220 -117.725500 179 7987ft 155kts
25-Mar-17 08:33 48.919342 -117.723355 179 7986ft 155kts
25-Mar-17 08:34 48.897385 -117.721118 178 7989ft 155kts
25-Mar-17 08:35 48.876442 -117.719127 178 7992ft 155kts
25-Mar-17 08:36 48.853243 -117.716942 179 7992ft 155kts
25-Mar-17 08:37 48.830277 -117.714790 179 7992ft 155kts
25-Mar-17 08:38 48.805317 -117.712407 178 7992ft 155kts
25-Mar-17 08:39 48.780383 -117.709925 177 7991ft 156kts
25-Mar-17 08:40 48.761736 -117.708131 179 7991ft 156kts
25-Mar-17 08:47 48.576627 -117.689140 179 8003ft 155kts
25-Mar-17 08:48 48.543857 -117.684501 179 8011ft 156kts
25-Mar-17 08:49 48.503909 -117.678024 178 8020ft 156kts
25-Mar-17 08:50 48.461116 -117.670199 178 8027ft 157kts
25-Mar-17 08:51 48.417994 -117.662103 178 8027ft 158kts
25-Mar-17 08:52 48.374842 -117.654002 178 8027ft 158kts
25-Mar-17 08:53 48.331799 -117.645918 178 8026ft 158kts
25-Mar-17 08:54 48.288807 -117.639583 180 8026ft 157kts
25-Mar-17 08:55 48.245580 -117.633979 180 8026ft 157kts
25-Mar-17 08:56 48.202441 -117.628377 180 8026ft 157kts
25-Mar-17 08:57 48.159421 -117.623828 181 8026ft 157kts
25-Mar-17 08:58 48.116181 -117.619455 181 8026ft 157kts
25-Mar-17 08:59 48.073300 -117.615110 181 8025ft 157kts
25-Mar-17 09:00 48.032074 -117.610924 181 8025ft 157kts
25-Mar-17 09:01 47.989180 -117.606563 181 8025ft 156kts
25-Mar-17 09:02 47.950362 -117.602605 181 8025ft 156kts
25-Mar-17 09:03 47.907571 -117.598237 181 8025ft 156kts
25-Mar-17 09:04 47.866871 -117.594021 178 8027ft 158kts
25-Mar-17 09:05 47.842946 -117.547663 125 7707ft 185kts
25-Mar-17 09:06 47.825909 -117.499563 124 7214ft 186kts
25-Mar-17 09:07 47.809996 -117.454158 124 6723ft 186kts
25-Mar-17 09:08 47.794479 -117.410462 124 6180ft 184kts
25-Mar-17 09:09 47.778337 -117.365647 124 5619ft 183kts
25-Mar-17 09:10 47.756905 -117.334742 187 5075ft 166kts
25-Mar-17 09:11 47.721242 -117.342069 172 4397ft 170kts
25-Mar-17 09:12 47.688455 -117.358709 234 4122ft 147kts
25-Mar-17 09:13 47.678855 -117.410408 263 4118ft 143kts
25-Mar-17 09:14 47.668467 -117.462446 228 3966ft 147kts
25-Mar-17 09:15 47.640510 -117.504411 226 2758ft 141kts
25-Mar-17 09:16 47.622023 -117.532065 227 2378ft 47kts
25-Mar-17 09:17 47.618086 -117.535649 91 2378ft 0kts
25-Mar-17 09:18 47.617935 -117.530195 83 2378ft 24kts
25-Mar-17 09:19 47.619074 -117.525385 194 2378ft 0kts
25-Mar-17 09:27 47.619074 -117.525385 194 2378ft 0kts
25-Mar-17 09:28 47.619074 -117.525385 194 2378ft 0kts
25-Mar-17 09:29 47.619074 -117.525385 194 2378ft 0kts
25-Mar-17 09:30 47.619074 -117.525385 194 2378ft 0kts
25-Mar-17 09:31 47.619074 -117.525385 194 2378ft 0kts
25-Mar-17 09:32 47.619074 -117.525385 194 2378ft 0kts

Navigation Log

Ident Type
Flight plan parsing failed, navigation log unavailable